Terminal Aerodrome Forecast
Issued by NWS Mobile, AL

Home | Current Version | Previous Version | Text Only | Print | Product List | Glossary On
Versions: 1 2 3 4 5 6 7 8 9 10 11 12 13 14 15 16 17 18 19 20 21 22 23 24 25 26 27 28 29 30
324
FTUS44 KMOB 252331
TAFMOB
TAF
KMOB 252331Z 2600/2624 35009KT P6SM FEW060 FEW250
     FM261500 28010KT P6SM VCSH OVC007 PROB30 2615/2618 P6SM -TSRA
      BKN007CB
     FM261800 29010KT P6SM SKC=

USA.gov is the U.S. government's official web portal to all federal, state and local government web resources and services.